Time;durP1;ratioP1;P1;durP2;ratioP2;P2;SDS_P1;SDS_P2;PMS_P1;PMS_P2;Temp;Humidity;BMP_temperature;BMP_pressure;BME280_temperature;BME280_humidity;BME280_pressure;Samples;Min_cycle;Max_cycle;Signal;HPM_P1;HPM_P2
2022/04/08 04:01:42;;;;;;;12.70;2.40;;;8.00;99.90;;;;;;5487412;23;20496;-77
2022/04/08 04:04:09;;;;;;;7.03;2.27;;;8.00;99.90;;;;;;5033352;28;20473;-77
2022/04/08 04:06:35;;;;;;;5.87;1.77;;;8.00;99.90;;;;;;5028439;28;20957;-77
2022/04/08 04:09:02;;;;;;;6.20;2.00;;;8.00;99.90;;;;;;5029757;28;20454;-77
2022/04/08 04:11:29;;;;;;;4.70;1.90;;;8.00;99.90;;;;;;5031534;28;20469;-79
2022/04/08 04:13:56;;;;;;;7.43;1.90;;;8.00;99.90;;;;;;5029405;28;20560;-77
2022/04/08 04:16:23;;;;;;;2.73;1.63;;;8.00;99.90;;;;;;5029282;28;20537;-77
2022/04/08 04:18:51;;;;;;;7.30;2.10;;;8.00;99.90;;;;;;5029425;28;21139;-77
2022/04/08 04:21:18;;;;;;;5.87;1.50;;;8.00;99.90;;;;;;5028689;28;20478;-78
2022/04/08 04:23:45;;;;;;;7.27;1.73;;;7.90;99.90;;;;;;5029431;28;20458;-77
2022/04/08 04:26:11;;;;;;;3.30;1.97;;;7.90;99.90;;;;;;5029440;28;20484;-77
2022/04/08 04:28:38;;;;;;;8.30;2.20;;;7.90;99.90;;;;;;5029230;28;20496;-77
2022/04/08 04:31:06;;;;;;;5.50;1.90;;;7.90;99.90;;;;;;5028682;28;20489;-77
2022/04/08 04:33:33;;;;;;;4.90;1.90;;;7.90;99.90;;;;;;5031265;28;20497;-77
2022/04/08 04:36:01;;;;;;;6.53;2.23;;;8.00;99.90;;;;;;5042411;28;20783;-78
2022/04/08 04:38:33;;;;;;;5.43;1.60;;;7.90;99.90;;;;;;5027993;28;20465;-77
2022/04/08 04:41:00;;;;;;;5.83;1.67;;;7.90;99.90;;;;;;5028774;28;20478;-77
2022/04/08 04:43:27;;;;;;;6.80;1.93;;;7.90;99.90;;;;;;5028934;28;20458;-77
2022/04/08 04:45:54;;;;;;;8.00;1.70;;;8.00;99.90;;;;;;5035262;28;20459;-77
2022/04/08 04:48:22;;;;;;;10.33;2.13;;;8.00;99.90;;;;;;5047637;28;20449;-69
2022/04/08 04:50:49;;;;;;;6.80;2.00;;;8.00;99.90;;;;;;5044335;28;20997;-67
2022/04/08 04:53:18;;;;;;;5.90;2.10;;;8.20;99.90;;;;;;5027382;28;20317;-68
2022/04/08 04:55:44;;;;;;;4.97;1.80;;;8.20;99.90;;;;;;5026732;28;20450;-74
2022/04/08 04:58:11;;;;;;;7.07;2.17;;;8.10;99.90;;;;;;5026370;28;20541;-74
2022/04/08 05:00:38;;;;;;;10.97;2.33;;;8.00;99.90;;;;;;5043914;28;20492;-74
2022/04/08 05:03:06;;;;;;;5.37;2.30;;;8.00;99.90;;;;;;5047416;28;20445;-74
2022/04/08 05:05:33;;;;;;;13.50;2.23;;;7.90;99.90;;;;;;5046560;28;20472;-74
2022/04/08 05:08:06;;;;;;;8.03;2.20;;;7.90;99.90;;;;;;5046366;28;20545;-74
2022/04/08 05:10:35;;;;;;;7.07;1.80;;;7.90;99.90;;;;;;5047194;28;20567;-74
2022/04/08 05:13:02;;;;;;;3.70;1.60;;;7.90;99.90;;;;;;5047267;28;20493;-74
2022/04/08 05:15:32;;;;;;;10.20;3.03;;;7.90;99.90;;;;;;5029551;28;20461;-74
2022/04/08 05:18:00;;;;;;;10.07;2.20;;;7.80;99.90;;;;;;5027419;28;20538;-75
2022/04/08 05:20:26;;;;;;;8.13;2.33;;;7.80;99.90;;;;;;5027203;28;21000;-75
2022/04/08 05:22:54;;;;;;;11.63;2.50;;;7.90;99.90;;;;;;5038859;28;20460;-75
2022/04/08 05:25:21;;;;;;;4.40;2.13;;;7.90;99.90;;;;;;5047397;28;20446;-75
2022/04/08 05:27:51;;;;;;;5.90;1.97;;;7.90;99.90;;;;;;5045104;28;20457;-75
2022/04/08 05:30:18;;;;;;;12.33;1.90;;;7.90;99.90;;;;;;5046092;28;20940;-75
2022/04/08 05:32:45;;;;;;;9.03;2.40;;;7.90;99.90;;;;;;5046486;28;20501;-75
2022/04/08 05:35:14;;;;;;;7.17;1.93;;;7.90;99.90;;;;;;5028544;28;20549;-75
2022/04/08 05:37:42;;;;;;;7.50;2.00;;;7.90;99.90;;;;;;5026268;28;20453;-76
2022/04/08 05:40:10;;;;;;;7.30;2.50;;;7.90;99.90;;;;;;5026979;28;20457;-75
2022/04/08 05:42:39;;;;;;;8.30;2.93;;;7.80;99.90;;;;;;5029268;28;20578;-75
2022/04/08 05:45:08;;;;;;;11.90;3.13;;;7.80;99.90;;;;;;5046215;28;20488;-75
2022/04/08 05:47:35;;;;;;;9.00;2.30;;;7.90;99.90;;;;;;5044755;28;20472;-76
2022/04/08 05:50:03;;;;;;;6.00;1.87;;;7.80;99.90;;;;;;5033865;28;20452;-75
2022/04/08 05:52:30;;;;;;;10.63;2.20;;;7.80;99.90;;;;;;5045278;28;20492;-75
2022/04/08 05:54:57;;;;;;;8.97;2.30;;;7.80;99.90;;;;;;5044950;28;20465;-75
2022/04/08 05:57:24;;;;;;;5.80;2.20;;;7.80;99.90;;;;;;5032009;28;20452;-75
2022/04/08 05:59:51;;;;;;;9.27;2.30;;;7.80;99.90;;;;;;5026251;28;20458;-80
2022/04/08 06:02:20;;;;;;;9.00;2.33;;;7.80;99.90;;;;;;5029540;28;20873;-75
2022/04/08 06:04:47;;;;;;;4.53;2.23;;;7.80;99.90;;;;;;5046097;28;20507;-76
2022/04/08 06:07:14;;;;;;;5.20;2.00;;;7.80;99.90;;;;;;5046605;28;20456;-75
2022/04/08 06:09:41;;;;;;;9.20;2.27;;;7.80;99.90;;;;;;5046413;28;20567;-74
2022/04/08 06:12:08;;;;;;;9.53;2.00;;;7.80;99.90;;;;;;5041631;28;20476;-75
2022/04/08 06:14:35;;;;;;;10.60;2.50;;;7.90;99.90;;;;;;5046459;28;20539;-75
2022/04/08 06:17:02;;;;;;;4.20;2.40;;;7.90;99.90;;;;;;5039239;28;20454;-75
2022/04/08 06:19:30;;;;;;;8.83;2.00;;;7.90;99.90;;;;;;5026415;28;20508;-75
2022/04/08 06:21:57;;;;;;;9.50;2.00;;;7.90;99.90;;;;;;5025983;28;20468;-75
2022/04/08 06:24:24;;;;;;;5.50;2.10;;;7.90;99.90;;;;;;5026990;28;20817;-75
2022/04/08 06:26:51;;;;;;;9.17;2.80;;;8.00;99.90;;;;;;5025720;28;20974;-76
2022/04/08 06:29:18;;;;;;;10.53;2.10;;;8.10;99.90;;;;;;5027331;28;20465;-76
2022/04/08 06:31:45;;;;;;;7.43;2.40;;;8.10;99.90;;;;;;5026048;28;21028;-74
2022/04/08 06:34:12;;;;;;;4.57;1.90;;;8.10;99.90;;;;;;5024927;28;20490;-75
2022/04/08 06:36:40;;;;;;;4.77;2.30;;;8.10;99.90;;;;;;5036795;28;20576;-75
2022/04/08 06:39:07;;;;;;;16.53;2.87;;;8.10;99.90;;;;;;5045514;28;20994;-74
2022/04/08 06:41:34;;;;;;;8.77;2.73;;;8.20;99.90;;;;;;5045611;28;21051;-75
2022/04/08 06:44:02;;;;;;;9.13;2.30;;;8.30;99.90;;;;;;5028538;28;20482;-74
2022/04/08 06:46:29;;;;;;;6.43;2.40;;;8.30;99.90;;;;;;5024995;28;20458;-74
2022/04/08 06:49:02;;;;;;;9.87;2.93;;;8.30;99.90;;;;;;5025640;28;20519;-74
2022/04/08 06:51:29;;;;;;;4.93;2.10;;;8.40;99.90;;;;;;5038978;28;20480;-74
2022/04/08 06:53:58;;;;;;;7.80;2.33;;;8.30;99.90;;;;;;5045709;28;21470;-75
2022/04/08 06:56:24;;;;;;;5.23;2.03;;;8.40;99.90;;;;;;5044950;28;20449;-74
2022/04/08 06:58:51;;;;;;;9.07;2.30;;;8.40;99.90;;;;;;5045290;28;20499;-75
2022/04/08 07:01:18;;;;;;;6.87;2.30;;;8.40;99.90;;;;;;5044096;28;21031;-74
2022/04/08 07:03:52;;;;;;;9.53;2.10;;;8.50;99.90;;;;;;5042076;28;20455;-75
2022/04/08 07:06:19;;;;;;;8.13;3.60;;;8.40;99.90;;;;;;5031371;28;20461;-74
2022/04/08 07:08:46;;;;;;;5.83;2.20;;;8.40;99.90;;;;;;5025517;28;20461;-74
2022/04/08 07:11:20;;;;;;;6.57;2.53;;;8.40;99.90;;;;;;5025046;28;20520;-76
2022/04/08 07:13:46;;;;;;;6.77;1.93;;;8.40;99.90;;;;;;5025924;28;20497;-75
2022/04/08 07:16:14;;;;;;;14.73;1.93;;;8.30;99.90;;;;;;5031022;28;20545;-75
2022/04/08 07:18:41;;;;;;;6.80;2.67;;;8.30;99.90;;;;;;5027120;28;20461;-68
2022/04/08 07:21:09;;;;;;;7.50;1.97;;;8.30;99.90;;;;;;5029756;28;20504;-76
2022/04/08 07:23:36;;;;;;;7.63;2.07;;;8.30;99.90;;;;;;5028599;28;20485;-75
2022/04/08 07:26:03;;;;;;;7.30;2.63;;;8.30;99.90;;;;;;5029178;28;20484;-76
2022/04/08 07:28:33;;;;;;;6.13;1.80;;;8.30;99.90;;;;;;5032583;28;20568;-75
2022/04/08 07:31:01;;;;;;;3.83;1.50;;;8.20;99.90;;;;;;5048904;28;21117;-75
2022/04/08 07:33:28;;;;;;;4.70;1.50;;;8.20;99.90;;;;;;5037640;28;20488;-75
2022/04/08 07:35:58;;;;;;;3.13;1.70;;;8.10;99.90;;;;;;5051990;28;20445;-76
2022/04/08 07:38:25;;;;;;;4.07;1.63;;;8.00;99.90;;;;;;5050304;28;20463;-75
2022/04/08 07:40:52;;;;;;;5.80;1.80;;;8.00;99.90;;;;;;5050967;28;20545;-76
2022/04/08 07:43:19;;;;;;;3.07;1.90;;;7.90;99.90;;;;;;5051016;28;20458;-75
2022/04/08 07:45:47;;;;;;;7.67;1.70;;;7.80;99.90;;;;;;5050720;28;20465;-76
2022/04/08 07:48:15;;;;;;;4.30;1.73;;;7.90;99.90;;;;;;5036813;28;20537;-76
2022/04/08 07:50:47;;;;;;;3.40;1.70;;;7.90;99.90;;;;;;5054000;28;20549;-75
2022/04/08 07:53:15;;;;;;;3.30;1.90;;;7.90;99.90;;;;;;5052703;28;20528;-76
2022/04/08 07:55:42;;;;;;;7.30;2.50;;;7.90;99.90;;;;;;5050424;28;20945;-75
2022/04/08 07:58:09;;;;;;;4.17;1.80;;;7.80;99.90;;;;;;5049569;28;20476;-75
2022/04/08 08:00:36;;;;;;;5.03;1.50;;;7.80;99.90;;;;;;5051564;28;20472;-76
2022/04/08 08:03:04;;;;;;;4.27;1.63;;;7.80;99.90;;;;;;5049363;28;20545;-76
2022/04/08 08:05:32;;;;;;;4.33;2.10;;;7.70;99.90;;;;;;5044697;28;21026;-76
2022/04/08 08:08:01;;;;;;;7.33;2.20;;;7.70;99.90;;;;;;5044611;28;20466;-76
2022/04/08 08:10:29;;;;;;;6.60;2.33;;;7.60;99.90;;;;;;5042244;28;20948;-76
2022/04/08 08:12:56;;;;;;;2.57;1.80;;;7.60;99.90;;;;;;5048715;28;20969;-76
2022/04/08 08:15:24;;;;;;;6.53;1.80;;;7.60;99.90;;;;;;5048596;28;20449;-76
2022/04/08 08:17:52;;;;;;;5.43;2.13;;;7.50;99.90;;;;;;5049361;28;20511;-76
2022/04/08 08:20:22;;;;;;;7.10;2.10;;;7.60;99.90;;;;;;5047977;28;20453;-76
2022/04/08 08:22:49;;;;;;;4.10;2.20;;;7.60;99.90;;;;;;5034385;28;20515;-75
2022/04/08 08:25:17;;;;;;;5.13;1.93;;;7.60;99.90;;;;;;5031298;28;20449;-75
2022/04/08 08:27:45;;;;;;;4.13;2.20;;;7.60;99.90;;;;;;5044302;28;20480;-75
2022/04/08 08:30:14;;;;;;;5.33;2.20;;;7.60;99.90;;;;;;5048790;28;20511;-75
2022/04/08 08:32:44;;;;;;;4.53;1.83;;;7.50;99.90;;;;;;5047369;28;20535;-75
2022/04/08 08:35:12;;;;;;;4.63;2.00;;;7.50;99.90;;;;;;5047259;28;20580;-75
2022/04/08 08:37:42;;;;;;;5.63;1.77;;;7.50;99.90;;;;;;5046096;28;20493;-75
2022/04/08 08:40:11;;;;;;;10.13;2.30;;;7.50;99.90;;;;;;5028974;28;20450;-75
2022/04/08 08:42:39;;;;;;;3.47;1.60;;;7.50;99.90;;;;;;5027404;28;20513;-76
2022/04/08 08:45:08;;;;;;;2.80;1.67;;;7.50;99.90;;;;;;5026952;28;20445;-75
2022/04/08 08:47:35;;;;;;;3.77;1.43;;;7.50;99.90;;;;;;5026097;28;20602;-75
2022/04/08 08:50:03;;;;;;;3.03;1.33;;;7.40;99.90;;;;;;5028554;28;20537;-76
2022/04/08 08:52:32;;;;;;;3.20;1.67;;;7.40;99.90;;;;;;5027252;28;20485;-75
2022/04/08 08:55:03;;;;;;;3.07;1.30;;;7.40;99.90;;;;;;5034310;28;20491;-76
2022/04/08 08:57:30;;;;;;;5.13;1.43;;;7.30;99.90;;;;;;5042186;28;20457;-75
2022/04/08 09:00:07;;;;;;;6.87;1.60;;;7.40;99.90;;;;;;5047681;28;20592;-75
2022/04/08 09:02:35;;;;;;;3.70;1.37;;;7.50;99.90;;;;;;5046888;28;20563;-75
2022/04/08 09:05:11;;;;;;;4.83;1.47;;;7.60;99.90;;;;;;5047239;28;20456;-75
2022/04/08 09:07:38;;;;;;;2.10;1.60;;;7.60;99.90;;;;;;5046159;28;20948;-75
2022/04/08 09:10:07;;;;;;;2.93;1.43;;;7.50;99.90;;;;;;5046370;28;20460;-76
2022/04/08 09:12:34;;;;;;;2.50;1.50;;;7.60;99.90;;;;;;5028187;28;20488;-76
2022/04/08 09:15:02;;;;;;;2.53;1.40;;;7.60;99.90;;;;;;5026944;28;20602;-77
2022/04/08 09:17:29;;;;;;;2.90;1.40;;;7.50;99.90;;;;;;5026025;28;20517;-77
2022/04/08 09:19:58;;;;;;;3.60;1.57;;;7.60;99.90;;;;;;5026172;28;21413;-76
2022/04/08 09:22:28;;;;;;;4.20;1.90;;;7.70;99.90;;;;;;5036575;28;20477;-77
2022/04/08 09:24:55;;;;;;;1.80;1.23;;;7.80;99.90;;;;;;5046362;28;20821;-75
2022/04/08 09:27:33;;;;;;;4.17;1.83;;;7.80;99.90;;;;;;5037148;28;20461;-77
2022/04/08 09:30:00;;;;;;;4.47;1.60;;;7.90;99.90;;;;;;5027256;28;20460;-76
2022/04/08 09:32:27;;;;;;;3.43;1.90;;;7.90;99.90;;;;;;5026797;28;20484;-77
2022/04/08 09:34:54;;;;;;;2.43;1.70;;;7.90;99.90;;;;;;5042231;28;20499;-76
2022/04/08 09:37:21;;;;;;;2.77;1.80;;;8.00;99.90;;;;;;5045686;28;20492;-76
2022/04/08 09:39:55;;;;;;;3.20;1.73;;;8.00;99.90;;;;;;5037538;28;20456;-76
2022/04/08 09:42:23;;;;;;;4.17;1.60;;;8.00;99.90;;;;;;5030584;28;20865;-76
2022/04/08 09:44:51;;;;;;;2.30;2.07;;;8.00;99.90;;;;;;5041084;28;21019;-76
2022/04/08 09:47:18;;;;;;;6.13;1.90;;;8.00;99.90;;;;;;5030202;28;20827;-77
2022/04/08 09:49:45;;;;;;;2.47;1.90;;;8.10;99.90;;;;;;5025581;28;20514;-76
2022/04/08 09:52:12;;;;;;;3.53;1.97;;;8.00;99.90;;;;;;5026978;28;20478;-75
2022/04/08 09:54:43;;;;;;;4.00;1.53;;;8.10;99.90;;;;;;5026322;28;20540;-75
2022/04/08 09:57:17;;;;;;;1.30;1.17;;;8.10;99.90;;;;;;5026031;28;20881;-78
2022/04/08 09:59:47;;;;;;;2.30;1.43;;;8.10;99.90;;;;;;5033187;28;21180;-78
2022/04/08 10:02:16;;;;;;;5.70;1.63;;;8.10;99.90;;;;;;5046470;28;20485;-76
2022/04/08 10:04:44;;;;;;;1.80;1.53;;;8.00;99.90;;;;;;5047067;28;20453;-77
2022/04/08 10:07:12;;;;;;;2.33;1.50;;;7.90;99.90;;;;;;5046841;28;20452;-76
2022/04/08 10:09:47;;;;;;;1.60;1.50;;;7.80;99.90;;;;;;5047868;28;20460;-77
2022/04/08 10:12:23;;;;;;;2.80;1.90;;;7.90;99.90;;;;;;5046894;28;20483;-76
2022/04/08 10:14:59;;;;;;;3.43;1.37;;;8.00;99.90;;;;;;5040173;28;21018;-79
2022/04/08 10:17:26;;;;;;;2.90;1.40;;;8.10;99.90;;;;;;5034315;28;20455;-78
2022/04/08 10:19:54;;;;;;;1.60;1.30;;;8.10;99.90;;;;;;5047440;28;20441;-76
2022/04/08 10:22:22;;;;;;;1.70;1.20;;;8.10;99.90;;;;;;5046829;28;20476;-78
2022/04/08 10:24:53;;;;;;;3.00;2.00;;;8.20;99.90;;;;;;5047326;28;20457;-77
2022/04/08 10:27:30;;;;;;;1.60;1.50;;;8.20;99.90;;;;;;5046715;28;20822;-76
2022/04/08 10:29:58;;;;;;;2.90;2.00;;;8.30;99.90;;;;;;5047087;28;20821;-77
2022/04/08 10:32:36;;;;;;;3.90;1.40;;;8.30;99.90;;;;;;5047308;28;20477;-77
2022/04/08 10:35:16;;;;;;;1.80;1.43;;;8.40;99.90;;;;;;5047608;28;20480;-77
2022/04/08 10:37:43;;;;;;;3.30;2.30;;;8.40;99.90;;;;;;5046050;28;20444;-76
2022/04/08 10:40:12;;;;;;;4.93;1.77;;;8.40;99.90;;;;;;5047219;28;20983;-77
2022/04/08 10:42:38;;;;;;;2.43;1.37;;;8.40;99.90;;;;;;5047203;28;20816;-79
2022/04/08 10:45:14;;;;;;;1.37;1.17;;;8.40;99.90;;;;;;5046227;28;20484;-76
2022/04/08 10:47:47;;;;;;;1.07;1.03;;;8.40;99.90;;;;;;5045863;28;20559;-79
2022/04/08 10:50:24;;;;;;;1.20;1.10;;;8.40;99.90;;;;;;5047158;28;20537;-77
2022/04/08 10:52:51;;;;;;;4.47;1.20;;;8.40;99.90;;;;;;5046264;28;20456;-77
2022/04/08 10:55:18;;;;;;;1.50;1.40;;;8.30;99.90;;;;;;5050691;28;20492;-78
2022/04/08 10:57:46;;;;;;;2.30;1.10;;;8.30;99.90;;;;;;5047265;28;20454;-76
2022/04/08 11:00:18;;;;;;;1.77;1.40;;;8.30;99.90;;;;;;5045241;28;20456;-77
2022/04/08 11:02:46;;;;;;;2.13;1.53;;;8.30;99.90;;;;;;5050478;28;20437;-77
2022/04/08 11:05:15;;;;;;;1.87;1.77;;;8.30;99.90;;;;;;5050145;28;20456;-77
2022/04/08 11:07:44;;;;;;;2.13;1.97;;;8.30;99.90;;;;;;5049787;28;20949;-77
2022/04/08 11:10:11;;;;;;;1.40;1.30;;;8.30;99.90;;;;;;5050631;28;20456;-68
2022/04/08 11:12:44;;;;;;;1.67;1.30;;;8.40;99.90;;;;;;5039964;28;20572;-69
2022/04/08 11:15:16;;;;;;;2.13;1.40;;;8.40;99.90;;;;;;5029016;28;20592;-77
2022/04/08 11:17:43;;;;;;;1.83;1.40;;;8.40;99.90;;;;;;5028434;28;20526;-78
2022/04/08 11:20:13;;;;;;;2.60;1.43;;;8.50;99.90;;;;;;5029698;28;20461;-80
2022/04/08 11:22:42;;;;;;;2.30;1.50;;;8.50;99.90;;;;;;5029545;28;20802;-79
2022/04/08 11:25:11;;;;;;;1.30;1.20;;;8.50;99.90;;;;;;5029674;28;20510;-78
2022/04/08 11:27:38;;;;;;;2.70;2.10;;;8.50;99.90;;;;;;5028570;28;20453;-77
2022/04/08 11:30:09;;;;;;;1.70;1.37;;;8.50;99.90;;;;;;5029074;28;20801;-77
2022/04/08 11:32:39;;;;;;;2.03;1.40;;;8.40;99.90;;;;;;5029026;28;20511;-76
2022/04/08 11:35:13;;;;;;;1.30;1.20;;;8.40;99.90;;;;;;5029199;28;20532;-76
2022/04/08 11:37:40;;;;;;;1.00;1.00;;;8.40;99.90;;;;;;5029316;28;20613;-76
2022/04/08 11:40:09;;;;;;;2.10;1.20;;;8.40;99.90;;;;;;5030382;28;20512;-77
2022/04/08 11:42:36;;;;;;;1.13;1.03;;;8.30;99.90;;;;;;5030610;28;20481;-76
2022/04/08 11:45:04;;;;;;;1.00;1.00;;;8.40;99.90;;;;;;5030088;28;20533;-75
2022/04/08 11:47:32;;;;;;;1.50;1.27;;;8.40;99.90;;;;;;5029054;28;21527;-76
2022/04/08 11:50:06;;;;;;;1.50;1.40;;;8.30;99.90;;;;;;5028656;28;20485;-76
2022/04/08 11:52:33;;;;;;;1.03;1.00;;;8.30;99.90;;;;;;5033994;28;20492;-78
2022/04/08 11:55:05;;;;;;;2.60;1.10;;;8.30;99.90;;;;;;5029549;28;20584;-77
2022/04/08 11:57:33;;;;;;;1.60;1.30;;;8.30;99.90;;;;;;5033031;28;20449;-78
2022/04/08 12:00:02;;;;;;;1.43;1.20;;;8.30;99.90;;;;;;5029185;28;20449;-78
2022/04/08 12:02:30;;;;;;;1.20;1.10;;;8.30;99.90;;;;;;5029209;28;20481;-78
2022/04/08 12:04:57;;;;;;;0.90;0.90;;;8.20;99.90;;;;;;5028802;28;20449;-77
2022/04/08 12:07:28;;;;;;;5.43;2.93;;;8.30;99.90;;;;;;5036924;28;20454;-78
2022/04/08 12:09:56;;;;;;;1.50;1.40;;;8.30;99.90;;;;;;5029604;28;20451;-76
2022/04/08 12:12:24;;;;;;;1.20;1.10;;;8.30;99.90;;;;;;5029708;28;20890;-76
2022/04/08 12:14:51;;;;;;;1.30;1.30;;;8.40;99.90;;;;;;5030071;28;20494;-76
2022/04/08 12:17:18;;;;;;;3.43;2.20;;;8.30;99.90;;;;;;5035338;28;20532;-78
2022/04/08 12:19:47;;;;;;;3.47;2.47;;;8.30;99.90;;;;;;5032520;28;20934;-78
2022/04/08 12:22:16;;;;;;;2.50;1.70;;;8.30;99.90;;;;;;5028918;28;20477;-76
2022/04/08 12:24:45;;;;;;;1.47;1.37;;;8.20;99.90;;;;;;5028475;28;20473;-76
2022/04/08 12:27:13;;;;;;;2.97;1.90;;;8.20;99.90;;;;;;5028749;28;20454;-77
2022/04/08 12:29:40;;;;;;;2.30;1.80;;;8.20;99.90;;;;;;5029749;28;21076;-77
2022/04/08 12:32:13;;;;;;;2.10;1.90;;;8.20;99.90;;;;;;5029619;28;21438;-76
2022/04/08 12:34:40;;;;;;;3.37;1.80;;;8.20;99.90;;;;;;5030012;28;20567;-76
2022/04/08 12:37:07;;;;;;;1.40;1.20;;;8.20;99.90;;;;;;5028956;28;20485;-79
2022/04/08 12:39:34;;;;;;;2.40;1.50;;;8.20;99.90;;;;;;5030180;28;20501;-78
2022/04/08 12:42:06;;;;;;;1.80;1.70;;;8.20;99.90;;;;;;5029973;28;20477;-78
2022/04/08 12:44:33;;;;;;;2.50;2.17;;;8.20;99.90;;;;;;5029822;28;20434;-81
2022/04/08 12:47:00;;;;;;;2.80;1.90;;;8.20;99.90;;;;;;5029140;28;20973;-78
2022/04/08 12:49:27;;;;;;;1.50;1.40;;;8.10;99.90;;;;;;5034634;28;20557;-79
2022/04/08 12:51:57;;;;;;;3.20;2.70;;;8.20;99.90;;;;;;5040368;28;20568;-80
2022/04/08 12:54:24;;;;;;;3.70;2.43;;;8.10;99.90;;;;;;5048843;28;20889;-78
2022/04/08 12:56:51;;;;;;;1.40;1.30;;;8.10;99.90;;;;;;5029397;28;20446;-78
2022/04/08 12:59:19;;;;;;;1.50;1.40;;;8.10;99.90;;;;;;5029913;28;20945;-79
2022/04/08 13:01:46;;;;;;;1.67;1.57;;;8.20;99.90;;;;;;5029349;28;21001;-78
2022/04/08 13:04:13;;;;;;;6.60;1.90;;;8.30;99.90;;;;;;5037743;28;20526;-77
2022/04/08 13:06:40;;;;;;;3.23;2.00;;;8.30;99.90;;;;;;5034997;28;20871;-80
2022/04/08 13:09:08;;;;;;;1.53;1.43;;;8.40;99.90;;;;;;5029598;28;20549;-77
2022/04/08 13:11:34;;;;;;;1.63;1.53;;;8.40;99.90;;;;;;5043635;28;20468;-77
2022/04/08 13:14:01;;;;;;;1.77;1.50;;;8.40;99.90;;;;;;5040025;28;20485;-78
2022/04/08 13:16:30;;;;;;;2.00;1.57;;;8.40;99.90;;;;;;5044787;28;20493;-77
2022/04/08 13:18:57;;;;;;;2.17;1.40;;;8.40;99.90;;;;;;5048397;28;20811;-77
2022/04/08 13:21:23;;;;;;;1.30;1.20;;;8.40;99.90;;;;;;5048352;28;21011;-78
2022/04/08 13:23:51;;;;;;;1.30;1.20;;;8.40;99.90;;;;;;5043556;28;20515;-78
2022/04/08 13:26:17;;;;;;;1.20;1.00;;;8.40;99.90;;;;;;5033853;28;20539;-77
2022/04/08 13:28:44;;;;;;;1.13;1.13;;;8.50;99.90;;;;;;5028388;28;20498;-78
2022/04/08 13:31:11;;;;;;;1.20;1.20;;;8.50;99.90;;;;;;5039922;28;20514;-77
2022/04/08 13:33:39;;;;;;;1.30;1.20;;;8.50;99.90;;;;;;5047626;28;20565;-78
2022/04/08 13:36:06;;;;;;;2.80;2.60;;;8.50;99.90;;;;;;5044659;28;21181;-80
2022/04/08 13:38:33;;;;;;;2.50;2.30;;;8.60;99.90;;;;;;5044100;28;20969;-78
2022/04/08 13:41:01;;;;;;;2.57;2.37;;;8.60;99.90;;;;;;5028422;28;20571;-79
2022/04/08 13:43:28;;;;;;;2.73;2.50;;;8.60;99.90;;;;;;5028346;28;20457;-79
2022/04/08 13:45:55;;;;;;;1.90;1.80;;;8.60;99.90;;;;;;5027857;28;20461;-78
2022/04/08 13:48:22;;;;;;;2.00;1.70;;;8.70;99.90;;;;;;5027742;28;20453;-79
2022/04/08 13:50:50;;;;;;;2.00;1.90;;;8.60;99.90;;;;;;5033464;28;20485;-80
2022/04/08 13:53:17;;;;;;;2.00;1.90;;;8.60;99.90;;;;;;5048147;28;20455;-81
2022/04/08 13:55:44;;;;;;;2.37;2.17;;;8.60;99.90;;;;;;5043864;28;20584;-78
2022/04/08 13:58:14;;;;;;;1.83;1.73;;;8.70;99.90;;;;;;5027388;28;20520;-78
2022/04/08 14:00:41;;;;;;;1.77;1.67;;;8.70;99.90;;;;;;5028145;28;21032;-78
2022/04/08 14:03:09;;;;;;;2.40;1.83;;;8.70;99.90;;;;;;5029221;28;20470;-77
2022/04/08 14:05:36;;;;;;;1.97;1.87;;;8.60;99.90;;;;;;5029459;28;20539;-79
2022/04/08 14:08:05;;;;;;;2.37;2.17;;;8.70;99.90;;;;;;5028038;28;20493;-76
2022/04/08 14:10:32;;;;;;;2.30;2.10;;;8.60;99.90;;;;;;5028322;28;21144;-75
2022/04/08 14:13:01;;;;;;;2.57;2.37;;;8.60;99.90;;;;;;5028229;28;21359;-77
2022/04/08 14:15:28;;;;;;;2.07;1.87;;;8.60;99.90;;;;;;5027978;28;21028;-80
2022/04/08 14:17:55;;;;;;;2.60;2.40;;;8.60;99.90;;;;;;5028334;28;20511;-80
2022/04/08 14:20:22;;;;;;;2.60;2.40;;;8.70;99.90;;;;;;5027981;28;20533;-77
2022/04/08 14:22:49;;;;;;;3.03;2.43;;;8.70;99.90;;;;;;5028297;28;20458;-76
2022/04/08 14:25:17;;;;;;;2.50;2.30;;;8.70;99.90;;;;;;5027922;28;21028;-75
2022/04/08 14:27:44;;;;;;;3.10;2.80;;;8.70;99.90;;;;;;5027401;28;20454;-78
2022/04/08 14:30:12;;;;;;;3.10;2.40;;;8.70;99.90;;;;;;5027912;28;20460;-76
2022/04/08 14:32:39;;;;;;;3.90;3.47;;;8.70;99.90;;;;;;5028059;28;20579;-78
2022/04/08 14:35:06;;;;;;;3.43;3.13;;;8.70;99.90;;;;;;5027700;28;20496;-75
2022/04/08 14:37:33;;;;;;;3.33;2.70;;;8.70;99.90;;;;;;5026941;28;20453;-81
2022/04/08 14:40:00;;;;;;;3.60;3.17;;;8.70;99.90;;;;;;5027976;28;21177;-76
2022/04/08 14:42:28;;;;;;;5.57;3.90;;;8.70;99.90;;;;;;5027472;28;20481;-77
2022/04/08 14:44:55;;;;;;;3.63;3.30;;;8.70;99.90;;;;;;5027290;28;20529;-77
2022/04/08 14:47:22;;;;;;;3.63;3.30;;;8.80;99.90;;;;;;5032654;28;20449;-78
2022/04/08 14:49:49;;;;;;;4.30;3.90;;;8.80;99.90;;;;;;5047486;28;21187;-76
2022/04/08 14:52:16;;;;;;;4.20;3.80;;;8.80;99.90;;;;;;5047386;28;21292;-76
2022/04/08 14:54:43;;;;;;;3.53;3.23;;;8.90;99.90;;;;;;5047438;28;20539;-76
2022/04/08 14:57:10;;;;;;;3.67;3.37;;;8.90;99.90;;;;;;5027511;28;20493;-79
2022/04/08 14:59:39;;;;;;;2.77;2.57;;;8.80;99.90;;;;;;5027368;28;20935;-76
2022/04/08 15:02:06;;;;;;;3.80;3.13;;;8.90;99.90;;;;;;5027084;28;20492;-77
2022/04/08 15:04:33;;;;;;;3.80;3.43;;;8.90;99.90;;;;;;5036528;28;20457;-76
2022/04/08 15:07:00;;;;;;;4.27;3.80;;;8.90;99.90;;;;;;5026717;28;20450;-77
2022/04/08 15:09:26;;;;;;;4.60;4.10;;;9.00;99.90;;;;;;5026974;28;20460;-76
2022/04/08 15:11:53;;;;;;;4.10;3.70;;;9.00;99.90;;;;;;5027426;28;20569;-76
2022/04/08 15:14:20;;;;;;;6.23;5.10;;;9.00;99.90;;;;;;5027023;28;20549;-78
2022/04/08 15:16:48;;;;;;;6.90;4.60;;;9.10;99.90;;;;;;5029899;28;20583;-77
2022/04/08 15:19:15;;;;;;;3.83;3.40;;;9.10;99.90;;;;;;5047322;28;20481;-76
2022/04/08 15:21:42;;;;;;;4.80;3.53;;;9.10;99.90;;;;;;5035034;28;20497;-76
2022/04/08 15:24:09;;;;;;;4.60;3.63;;;9.20;99.90;;;;;;5024446;28;20893;-70
2022/04/08 15:26:36;;;;;;;3.30;3.10;;;9.20;99.90;;;;;;5021743;28;21288;-70
2022/04/08 15:29:03;;;;;;;5.00;4.50;;;9.20;99.90;;;;;;5025143;28;20482;-70
2022/04/08 15:31:30;;;;;;;5.17;3.60;;;9.20;99.90;;;;;;5024636;28;20570;-72
2022/04/08 15:33:58;;;;;;;5.20;4.70;;;9.20;99.90;;;;;;5025955;28;20462;-81
2022/04/08 15:36:26;;;;;;;4.00;3.70;;;9.20;99.90;;;;;;5025756;28;20600;-78
2022/04/08 15:38:54;;;;;;;5.30;4.17;;;9.30;99.90;;;;;;5027072;28;20464;-77
2022/04/08 15:41:21;;;;;;;4.60;3.60;;;9.30;99.90;;;;;;5029721;28;20481;-77
2022/04/08 15:43:48;;;;;;;4.57;3.90;;;9.20;99.90;;;;;;5029670;28;20445;-77
2022/04/08 15:46:16;;;;;;;3.90;3.57;;;9.30;99.90;;;;;;5030398;28;20310;-76
2022/04/08 15:48:45;;;;;;;4.43;4.03;;;9.40;99.90;;;;;;5030651;28;20458;-79
2022/04/08 15:51:14;;;;;;;4.70;4.30;;;9.40;99.90;;;;;;5030990;28;20509;-76
2022/04/08 15:53:40;;;;;;;4.27;3.30;;;9.40;99.90;;;;;;5030675;28;20485;-77
2022/04/08 15:56:08;;;;;;;5.03;4.60;;;9.40;99.90;;;;;;5031266;28;20874;-75
2022/04/08 15:58:35;;;;;;;5.97;5.07;;;9.40;99.90;;;;;;5030239;28;20856;-76
2022/04/08 16:01:02;;;;;;;7.93;5.00;;;9.40;99.90;;;;;;5030205;28;20665;-77
2022/04/08 16:03:29;;;;;;;5.73;4.40;;;9.30;99.90;;;;;;5030244;28;20453;-76
2022/04/08 16:05:56;;;;;;;4.60;4.20;;;9.40;99.90;;;;;;5030516;28;20465;-79
2022/04/08 16:08:24;;;;;;;4.20;3.80;;;9.30;99.90;;;;;;5029795;28;21021;-79
2022/04/08 16:10:51;;;;;;;6.40;3.40;;;9.30;99.90;;;;;;5030342;28;20477;-75
2022/04/08 16:13:19;;;;;;;3.57;3.27;;;9.40;99.90;;;;;;5028753;28;20454;-78
2022/04/08 16:15:45;;;;;;;4.37;3.40;;;9.30;99.90;;;;;;5029148;28;20500;-75
2022/04/08 16:18:12;;;;;;;3.83;3.07;;;9.30;99.90;;;;;;5027526;28;20454;-81
2022/04/08 16:20:41;;;;;;;3.43;3.13;;;9.20;99.90;;;;;;5029334;28;20505;-76
2022/04/08 16:23:08;;;;;;;4.10;3.07;;;9.20;99.90;;;;;;5025785;28;20714;-78
2022/04/08 16:25:37;;;;;;;5.43;3.80;;;9.30;99.90;;;;;;5026680;28;20524;-81
2022/04/08 16:28:04;;;;;;;4.17;2.90;;;9.30;99.90;;;;;;5026165;28;20473;-76
2022/04/08 16:30:31;;;;;;;2.63;2.43;;;9.30;99.90;;;;;;5027083;28;20489;-82
2022/04/08 16:32:58;;;;;;;2.37;2.17;;;9.30;99.90;;;;;;5027529;28;20536;-76
2022/04/08 16:35:25;;;;;;;1.83;1.73;;;9.30;99.90;;;;;;5027105;28;20876;-76
2022/04/08 16:37:52;;;;;;;2.00;1.80;;;9.30;99.90;;;;;;5027018;28;20507;-79
2022/04/08 16:40:19;;;;;;;1.83;1.70;;;9.20;99.90;;;;;;5027916;28;20544;-77
2022/04/08 16:42:47;;;;;;;1.73;1.57;;;9.20;99.90;;;;;;5027278;28;20588;-77
2022/04/08 16:45:15;;;;;;;2.30;1.40;;;9.10;99.90;;;;;;5028719;28;20553;-77
2022/04/08 16:47:43;;;;;;;1.10;1.10;;;9.00;99.90;;;;;;5028151;28;20540;-78
2022/04/08 16:50:10;;;;;;;1.53;1.20;;;8.90;99.90;;;;;;5029568;28;20446;-77
2022/04/08 16:52:40;;;;;;;2.10;1.50;;;8.70;99.90;;;;;;5029288;28;21058;-76
2022/04/08 16:55:07;;;;;;;1.43;1.33;;;8.60;99.90;;;;;;5029432;28;20453;-76
2022/04/08 16:57:34;;;;;;;1.60;1.33;;;8.50;99.90;;;;;;5028371;28;20498;-77
2022/04/08 17:00:04;;;;;;;1.60;1.50;;;8.50;99.90;;;;;;5028800;28;20458;-76
2022/04/08 17:02:31;;;;;;;1.43;1.33;;;8.40;99.90;;;;;;5028923;28;20565;-76